Hlavní strana
METAR-TAF:

METAR-TAF

Letiště :

Ushuaia, Argentina

zeměpisná šířka: 54-48S, zeměpisná délka: 068-19W, výška: 16 m

Aktuální stav počasí

Zpráva byla vytvořena před 18 minutami, v 17:00 UTC
Jihozápadní vítr 11 kt
Teplota 6°C
Vlhkost vzduchu 56%
Tlak 1007 hPa
Viditelnost 10 km a více
Skoro jasno ve výšce 4500 ft
Polojasno ve výšce 8000 ft

METAR: SAWH 191700Z 23011KT 9999 FEW045 SCT080 06/M02 Q1007

Čas: 14:18 (17:18 UTC)

Předpověď počasí

Zpráva byla vytvořena před 6 hodinami a 18 minutami, v 11:00 UTC
Předpověď platná od 19 v 12 UTC do 20 v 12 UTC
vítr z různých směrů 5 kt
Viditelnost 10 km a více
Polojasno ve výšce 3000 ft
Polojasno ve výšce 9000 ft
Změna
od 19 v 18 UTC do 19 v 20 UTC
Jihozápadní vítr 10 kt
Oblačno až skoro zataženo ve výšce 3000 ft

TAF: SAWH 191100Z 1912/2012 VRB05KT 9999 SCT030 SCT090 TX06/1918Z TNM01/2011Z BECMG 1918/1920 23010KT BKN030

Stav a předpovědi počasí z více než 4 000 letišť (zprávy METAR a TAF).

Červené a žluté tečky na mapě představují dostupné meteorologické stanice.

Když kurzor umístíte na tečku, zobrazí se název stanice.

Pak kliknutím zobrazíte stav a předpověď počasí.

Chcete-li změnit mapu, kliknutím na zelené tlačítko se znaménkem +mapu přiblížíte, kliknutím na zelené tlačítko se znaménkem – mapu oddálíte a kliknutím na zelené šipky přejdete na sousední mapy.


METAR-TAF: